Croft, United Kingdom
Current Conditions -  °F | °C
As of 12:20 PM on Friday 28 Nov 2014 (Local Time) from EGBE Reporting Station
Broken Clouds Broken Clouds  
Wind Chill: 11°   Ceiling: 1100
Heat Index: 11°   Visibility: 4mi
Dew Point: 10°   Wind: 10mph
Humidity: 94%   Direction: 50°NE
Pressure: 29.62"   Gusts: NA
Location:  52.56°N, 1.25°W
Report Text: EGBE 281220Z 05009KT 6000 BKN011 11/10 Q1003
Loading
Personal Weather Stations






























Interactive Weather Map New forecast layout! Learn more

10-Day Weather Forecast

Advertisements
Track Severe Weather on mobile